sensor_id;sensor_type;location;lat;lon;timestamp;P1;durP1;ratioP1;P2;durP2;ratioP2
41881;SDS011;27562;47.524;12.404;2023-07-31T00:00:28;1.98;;;1.38;;
41881;SDS011;27562;47.524;12.404;2023-07-31T00:02:54;2.40;;;1.33;;
41881;SDS011;27562;47.524;12.404;2023-07-31T00:05:20;2.75;;;1.67;;
41881;SDS011;27562;47.524;12.404;2023-07-31T00:07:46;3.75;;;1.55;;
41881;SDS011;27562;47.524;12.404;2023-07-31T00:10:12;2.28;;;1.45;;
41881;SDS011;27562;47.524;12.404;2023-07-31T00:12:38;5.05;;;1.80;;
41881;SDS011;27562;47.524;12.404;2023-07-31T00:15:05;4.10;;;1.55;;
41881;SDS011;27562;47.524;12.404;2023-07-31T00:17:31;2.50;;;1.60;;
41881;SDS011;27562;47.524;12.404;2023-07-31T00:19:57;2.85;;;1.75;;
41881;SDS011;27562;47.524;12.404;2023-07-31T00:22:23;4.28;;;1.27;;
41881;SDS011;27562;47.524;12.404;2023-07-31T00:24:49;3.03;;;1.90;;
41881;SDS011;27562;47.524;12.404;2023-07-31T00:27:14;4.03;;;1.90;;
41881;SDS011;27562;47.524;12.404;2023-07-31T00:29:40;2.33;;;1.75;;
41881;SDS011;27562;47.524;12.404;2023-07-31T00:32:06;5.00;;;1.80;;
41881;SDS011;27562;47.524;12.404;2023-07-31T00:34:32;4.25;;;1.70;;
41881;SDS011;27562;47.524;12.404;2023-07-31T00:36:58;2.75;;;1.73;;
41881;SDS011;27562;47.524;12.404;2023-07-31T00:39:23;3.05;;;1.45;;
41881;SDS011;27562;47.524;12.404;2023-07-31T00:41:49;2.72;;;1.60;;
41881;SDS011;27562;47.524;12.404;2023-07-31T00:44:15;3.45;;;1.45;;
41881;SDS011;27562;47.524;12.404;2023-07-31T00:46:40;2.60;;;1.63;;
41881;SDS011;27562;47.524;12.404;2023-07-31T00:49:06;3.47;;;1.50;;
41881;SDS011;27562;47.524;12.404;2023-07-31T00:51:33;4.38;;;2.05;;
41881;SDS011;27562;47.524;12.404;2023-07-31T00:53:58;5.82;;;1.65;;
41881;SDS011;27562;47.524;12.404;2023-07-31T00:56:25;4.28;;;1.60;;
41881;SDS011;27562;47.524;12.404;2023-07-31T00:58:52;3.28;;;1.63;;
41881;SDS011;27562;47.524;12.404;2023-07-31T01:01:18;2.58;;;1.42;;
41881;SDS011;27562;47.524;12.404;2023-07-31T01:03:44;2.92;;;1.30;;
41881;SDS011;27562;47.524;12.404;2023-07-31T01:08:58;2.22;;;1.50;;
41881;SDS011;27562;47.524;12.404;2023-07-31T01:11:28;3.40;;;1.52;;
41881;SDS011;27562;47.524;12.404;2023-07-31T01:14:06;4.20;;;1.77;;
41881;SDS011;27562;47.524;12.404;2023-07-31T01:16:32;4.00;;;1.60;;
41881;SDS011;27562;47.524;12.404;2023-07-31T01:18:58;3.67;;;1.23;;
41881;SDS011;27562;47.524;12.404;2023-07-31T01:24:17;2.88;;;1.30;;
41881;SDS011;27562;47.524;12.404;2023-07-31T01:27:04;3.17;;;1.75;;
41881;SDS011;27562;47.524;12.404;2023-07-31T01:29:48;2.83;;;1.40;;
41881;SDS011;27562;47.524;12.404;2023-07-31T01:32:21;2.60;;;1.58;;
41881;SDS011;27562;47.524;12.404;2023-07-31T01:34:47;3.35;;;2.03;;
41881;SDS011;27562;47.524;12.404;2023-07-31T01:37:14;2.22;;;1.67;;
41881;SDS011;27562;47.524;12.404;2023-07-31T01:39:40;5.88;;;1.88;;
41881;SDS011;27562;47.524;12.404;2023-07-31T01:42:05;3.20;;;1.70;;
41881;SDS011;27562;47.524;12.404;2023-07-31T01:44:32;3.63;;;1.80;;
41881;SDS011;27562;47.524;12.404;2023-07-31T01:46:58;6.03;;;1.98;;
41881;SDS011;27562;47.524;12.404;2023-07-31T01:49:25;3.65;;;1.90;;
41881;SDS011;27562;47.524;12.404;2023-07-31T01:51:50;2.42;;;1.63;;
41881;SDS011;27562;47.524;12.404;2023-07-31T01:54:16;3.33;;;2.13;;
41881;SDS011;27562;47.524;12.404;2023-07-31T01:56:42;3.17;;;2.10;;
41881;SDS011;27562;47.524;12.404;2023-07-31T01:59:07;4.40;;;2.38;;
41881;SDS011;27562;47.524;12.404;2023-07-31T02:01:33;3.42;;;2.10;;
41881;SDS011;27562;47.524;12.404;2023-07-31T02:03:59;4.07;;;2.28;;
41881;SDS011;27562;47.524;12.404;2023-07-31T02:06:24;2.97;;;2.00;;
41881;SDS011;27562;47.524;12.404;2023-07-31T02:08:50;3.10;;;1.90;;
41881;SDS011;27562;47.524;12.404;2023-07-31T02:11:16;2.60;;;1.80;;
41881;SDS011;27562;47.524;12.404;2023-07-31T02:13:42;2.28;;;1.63;;
41881;SDS011;27562;47.524;12.404;2023-07-31T02:16:07;2.75;;;1.30;;
41881;SDS011;27562;47.524;12.404;2023-07-31T02:18:33;5.13;;;1.70;;
41881;SDS011;27562;47.524;12.404;2023-07-31T02:20:58;3.65;;;1.83;;
41881;SDS011;27562;47.524;12.404;2023-07-31T02:23:24;4.20;;;1.77;;
41881;SDS011;27562;47.524;12.404;2023-07-31T02:25:50;3.42;;;1.67;;
41881;SDS011;27562;47.524;12.404;2023-07-31T02:28:15;3.40;;;1.70;;
41881;SDS011;27562;47.524;12.404;2023-07-31T02:30:43;2.25;;;1.55;;
41881;SDS011;27562;47.524;12.404;2023-07-31T02:33:11;3.45;;;1.65;;
41881;SDS011;27562;47.524;12.404;2023-07-31T02:35:36;5.20;;;1.58;;
41881;SDS011;27562;47.524;12.404;2023-07-31T02:38:02;4.90;;;1.40;;
41881;SDS011;27562;47.524;12.404;2023-07-31T02:40:28;3.05;;;1.50;;
41881;SDS011;27562;47.524;12.404;2023-07-31T02:42:53;2.70;;;1.55;;
41881;SDS011;27562;47.524;12.404;2023-07-31T02:45:19;4.32;;;1.95;;
41881;SDS011;27562;47.524;12.404;2023-07-31T02:47:45;3.17;;;2.08;;
41881;SDS011;27562;47.524;12.404;2023-07-31T02:50:10;2.80;;;1.80;;
41881;SDS011;27562;47.524;12.404;2023-07-31T02:52:36;2.97;;;1.67;;
41881;SDS011;27562;47.524;12.404;2023-07-31T02:55:02;3.25;;;1.85;;
41881;SDS011;27562;47.524;12.404;2023-07-31T02:57:27;4.40;;;1.77;;
41881;SDS011;27562;47.524;12.404;2023-07-31T02:59:54;4.20;;;1.75;;
41881;SDS011;27562;47.524;12.404;2023-07-31T03:02:20;3.55;;;2.00;;
41881;SDS011;27562;47.524;12.404;2023-07-31T03:04:45;4.18;;;2.00;;
41881;SDS011;27562;47.524;12.404;2023-07-31T03:07:11;3.63;;;2.33;;
41881;SDS011;27562;47.524;12.404;2023-07-31T03:09:37;5.68;;;2.88;;
41881;SDS011;27562;47.524;12.404;2023-07-31T03:12:02;3.92;;;2.72;;
41881;SDS011;27562;47.524;12.404;2023-07-31T03:14:28;4.30;;;2.50;;
41881;SDS011;27562;47.524;12.404;2023-07-31T03:16:54;3.95;;;2.50;;
41881;SDS011;27562;47.524;12.404;2023-07-31T03:19:20;3.17;;;2.20;;
41881;SDS011;27562;47.524;12.404;2023-07-31T03:21:45;4.78;;;2.30;;
41881;SDS011;27562;47.524;12.404;2023-07-31T03:24:11;3.45;;;2.17;;
41881;SDS011;27562;47.524;12.404;2023-07-31T03:26:37;4.20;;;1.73;;
41881;SDS011;27562;47.524;12.404;2023-07-31T03:29:06;2.97;;;1.70;;
41881;SDS011;27562;47.524;12.404;2023-07-31T03:31:32;3.33;;;1.73;;
41881;SDS011;27562;47.524;12.404;2023-07-31T03:33:57;3.95;;;1.60;;
41881;SDS011;27562;47.524;12.404;2023-07-31T03:36:23;2.38;;;1.42;;
41881;SDS011;27562;47.524;12.404;2023-07-31T03:38:49;2.53;;;1.60;;
41881;SDS011;27562;47.524;12.404;2023-07-31T03:41:16;3.05;;;1.70;;
41881;SDS011;27562;47.524;12.404;2023-07-31T03:43:41;4.68;;;1.83;;
41881;SDS011;27562;47.524;12.404;2023-07-31T03:46:07;3.88;;;2.15;;
41881;SDS011;27562;47.524;12.404;2023-07-31T03:48:32;3.45;;;2.05;;
41881;SDS011;27562;47.524;12.404;2023-07-31T03:50:58;3.08;;;1.90;;
41881;SDS011;27562;47.524;12.404;2023-07-31T03:53:24;2.85;;;1.73;;
41881;SDS011;27562;47.524;12.404;2023-07-31T03:55:49;2.58;;;1.58;;
41881;SDS011;27562;47.524;12.404;2023-07-31T03:58:15;2.42;;;1.60;;
41881;SDS011;27562;47.524;12.404;2023-07-31T04:00:41;3.25;;;1.50;;
41881;SDS011;27562;47.524;12.404;2023-07-31T04:03:06;3.78;;;1.55;;
41881;SDS011;27562;47.524;12.404;2023-07-31T04:05:32;3.35;;;2.10;;
41881;SDS011;27562;47.524;12.404;2023-07-31T04:07:58;7.65;;;1.70;;
41881;SDS011;27562;47.524;12.404;2023-07-31T04:10:24;3.65;;;1.95;;
41881;SDS011;27562;47.524;12.404;2023-07-31T04:12:50;3.80;;;1.77;;
41881;SDS011;27562;47.524;12.404;2023-07-31T04:15:15;2.67;;;1.75;;
41881;SDS011;27562;47.524;12.404;2023-07-31T04:17:41;2.60;;;1.80;;
41881;SDS011;27562;47.524;12.404;2023-07-31T04:20:07;2.38;;;1.60;;
41881;SDS011;27562;47.524;12.404;2023-07-31T04:22:33;3.10;;;1.75;;
41881;SDS011;27562;47.524;12.404;2023-07-31T04:24:59;2.95;;;1.75;;
41881;SDS011;27562;47.524;12.404;2023-07-31T04:27:24;3.58;;;1.98;;
41881;SDS011;27562;47.524;12.404;2023-07-31T04:29:50;4.07;;;1.80;;
41881;SDS011;27562;47.524;12.404;2023-07-31T04:32:16;2.60;;;1.75;;
41881;SDS011;27562;47.524;12.404;2023-07-31T04:34:42;6.30;;;2.20;;
41881;SDS011;27562;47.524;12.404;2023-07-31T04:37:08;4.43;;;2.63;;
41881;SDS011;27562;47.524;12.404;2023-07-31T04:39:33;4.55;;;2.42;;
41881;SDS011;27562;47.524;12.404;2023-07-31T04:41:59;5.00;;;3.08;;
41881;SDS011;27562;47.524;12.404;2023-07-31T04:44:25;5.28;;;2.35;;
41881;SDS011;27562;47.524;12.404;2023-07-31T04:46:50;4.50;;;2.55;;
41881;SDS011;27562;47.524;12.404;2023-07-31T04:49:16;4.10;;;2.33;;
41881;SDS011;27562;47.524;12.404;2023-07-31T04:51:42;4.53;;;2.30;;
41881;SDS011;27562;47.524;12.404;2023-07-31T04:54:07;4.25;;;1.80;;
41881;SDS011;27562;47.524;12.404;2023-07-31T04:56:33;4.60;;;2.72;;
41881;SDS011;27562;47.524;12.404;2023-07-31T04:58:59;3.70;;;2.40;;
41881;SDS011;27562;47.524;12.404;2023-07-31T05:01:24;3.15;;;2.30;;
41881;SDS011;27562;47.524;12.404;2023-07-31T05:03:50;4.53;;;2.40;;
41881;SDS011;27562;47.524;12.404;2023-07-31T05:06:16;3.10;;;2.10;;
41881;SDS011;27562;47.524;12.404;2023-07-31T05:08:41;3.85;;;2.42;;
41881;SDS011;27562;47.524;12.404;2023-07-31T05:11:07;5.88;;;3.08;;
41881;SDS011;27562;47.524;12.404;2023-07-31T05:13:33;4.10;;;2.13;;
41881;SDS011;27562;47.524;12.404;2023-07-31T05:15:58;5.88;;;2.72;;
41881;SDS011;27562;47.524;12.404;2023-07-31T05:18:24;5.28;;;2.40;;
41881;SDS011;27562;47.524;12.404;2023-07-31T05:20:50;4.95;;;2.90;;
41881;SDS011;27562;47.524;12.404;2023-07-31T05:23:15;5.50;;;3.38;;
41881;SDS011;27562;47.524;12.404;2023-07-31T05:25:41;4.90;;;2.90;;
41881;SDS011;27562;47.524;12.404;2023-07-31T05:28:07;4.05;;;2.70;;
41881;SDS011;27562;47.524;12.404;2023-07-31T05:30:33;4.32;;;2.50;;
41881;SDS011;27562;47.524;12.404;2023-07-31T05:32:58;5.05;;;2.70;;
41881;SDS011;27562;47.524;12.404;2023-07-31T05:35:24;5.82;;;2.90;;
41881;SDS011;27562;47.524;12.404;2023-07-31T05:37:50;5.35;;;3.00;;
41881;SDS011;27562;47.524;12.404;2023-07-31T05:40:15;8.68;;;3.53;;
41881;SDS011;27562;47.524;12.404;2023-07-31T05:42:41;7.53;;;4.60;;
41881;SDS011;27562;47.524;12.404;2023-07-31T05:45:07;11.48;;;4.10;;
41881;SDS011;27562;47.524;12.404;2023-07-31T05:47:33;6.85;;;3.83;;
41881;SDS011;27562;47.524;12.404;2023-07-31T05:49:59;5.45;;;3.88;;
41881;SDS011;27562;47.524;12.404;2023-07-31T05:52:24;7.50;;;4.70;;
41881;SDS011;27562;47.524;12.404;2023-07-31T05:54:50;6.78;;;4.15;;
41881;SDS011;27562;47.524;12.404;2023-07-31T05:57:16;7.85;;;4.03;;
41881;SDS011;27562;47.524;12.404;2023-07-31T05:59:42;5.45;;;3.92;;
41881;SDS011;27562;47.524;12.404;2023-07-31T06:02:07;8.77;;;3.80;;
41881;SDS011;27562;47.524;12.404;2023-07-31T06:04:33;8.18;;;4.35;;
41881;SDS011;27562;47.524;12.404;2023-07-31T06:06:59;7.22;;;4.63;;
41881;SDS011;27562;47.524;12.404;2023-07-31T06:09:25;5.07;;;3.70;;
41881;SDS011;27562;47.524;12.404;2023-07-31T06:11:51;5.13;;;3.85;;
41881;SDS011;27562;47.524;12.404;2023-07-31T06:14:17;6.68;;;4.32;;
41881;SDS011;27562;47.524;12.404;2023-07-31T06:16:43;5.10;;;3.63;;
41881;SDS011;27562;47.524;12.404;2023-07-31T06:19:09;5.43;;;3.55;;
41881;SDS011;27562;47.524;12.404;2023-07-31T06:21:35;5.60;;;3.53;;
41881;SDS011;27562;47.524;12.404;2023-07-31T06:24:08;6.25;;;3.70;;
41881;SDS011;27562;47.524;12.404;2023-07-31T06:26:33;4.60;;;3.45;;
41881;SDS011;27562;47.524;12.404;2023-07-31T06:28:59;7.25;;;4.43;;
41881;SDS011;27562;47.524;12.404;2023-07-31T06:31:25;6.45;;;3.53;;
41881;SDS011;27562;47.524;12.404;2023-07-31T06:33:51;5.97;;;3.40;;
41881;SDS011;27562;47.524;12.404;2023-07-31T06:36:17;8.32;;;3.83;;
41881;SDS011;27562;47.524;12.404;2023-07-31T06:38:43;4.53;;;3.15;;
41881;SDS011;27562;47.524;12.404;2023-07-31T06:41:09;5.53;;;3.25;;
41881;SDS011;27562;47.524;12.404;2023-07-31T06:43:35;4.72;;;3.33;;
41881;SDS011;27562;47.524;12.404;2023-07-31T06:46:05;5.50;;;3.33;;
41881;SDS011;27562;47.524;12.404;2023-07-31T06:48:32;6.25;;;4.20;;
41881;SDS011;27562;47.524;12.404;2023-07-31T06:51:02;7.78;;;4.07;;
41881;SDS011;27562;47.524;12.404;2023-07-31T06:53:28;4.72;;;3.38;;
41881;SDS011;27562;47.524;12.404;2023-07-31T06:55:54;5.07;;;3.30;;
41881;SDS011;27562;47.524;12.404;2023-07-31T06:58:20;5.32;;;3.03;;
41881;SDS011;27562;47.524;12.404;2023-07-31T07:00:46;6.28;;;4.30;;
41881;SDS011;27562;47.524;12.404;2023-07-31T07:03:11;8.25;;;4.07;;
41881;SDS011;27562;47.524;12.404;2023-07-31T07:05:39;8.27;;;4.60;;
41881;SDS011;27562;47.524;12.404;2023-07-31T07:08:05;7.57;;;4.88;;
41881;SDS011;27562;47.524;12.404;2023-07-31T07:10:31;7.65;;;4.35;;
41881;SDS011;27562;47.524;12.404;2023-07-31T07:12:57;4.63;;;3.58;;
41881;SDS011;27562;47.524;12.404;2023-07-31T07:15:22;6.63;;;4.05;;
41881;SDS011;27562;47.524;12.404;2023-07-31T07:17:48;5.60;;;3.60;;
41881;SDS011;27562;47.524;12.404;2023-07-31T07:20:14;4.88;;;3.35;;
41881;SDS011;27562;47.524;12.404;2023-07-31T07:22:39;6.43;;;3.83;;
41881;SDS011;27562;47.524;12.404;2023-07-31T07:25:08;7.22;;;4.45;;
41881;SDS011;27562;47.524;12.404;2023-07-31T07:27:33;6.60;;;4.47;;
41881;SDS011;27562;47.524;12.404;2023-07-31T07:30:00;8.88;;;5.32;;
41881;SDS011;27562;47.524;12.404;2023-07-31T07:32:26;8.95;;;5.57;;
41881;SDS011;27562;47.524;12.404;2023-07-31T07:34:51;8.68;;;5.93;;
41881;SDS011;27562;47.524;12.404;2023-07-31T07:37:17;9.85;;;5.72;;
41881;SDS011;27562;47.524;12.404;2023-07-31T07:39:43;8.20;;;4.28;;
41881;SDS011;27562;47.524;12.404;2023-07-31T07:42:09;10.20;;;7.47;;
41881;SDS011;27562;47.524;12.404;2023-07-31T07:44:34;8.35;;;5.18;;
41881;SDS011;27562;47.524;12.404;2023-07-31T07:47:00;6.20;;;4.50;;
41881;SDS011;27562;47.524;12.404;2023-07-31T07:49:26;9.02;;;5.95;;
41881;SDS011;27562;47.524;12.404;2023-07-31T07:51:51;7.70;;;5.30;;
41881;SDS011;27562;47.524;12.404;2023-07-31T07:54:17;6.22;;;4.00;;
41881;SDS011;27562;47.524;12.404;2023-07-31T07:56:44;6.65;;;3.80;;
41881;SDS011;27562;47.524;12.404;2023-07-31T07:59:09;5.50;;;3.70;;
41881;SDS011;27562;47.524;12.404;2023-07-31T08:01:35;4.22;;;3.25;;
41881;SDS011;27562;47.524;12.404;2023-07-31T08:04:01;6.15;;;3.22;;
41881;SDS011;27562;47.524;12.404;2023-07-31T08:06:26;6.00;;;3.63;;
41881;SDS011;27562;47.524;12.404;2023-07-31T08:08:52;7.05;;;3.35;;
41881;SDS011;27562;47.524;12.404;2023-07-31T08:11:18;3.97;;;2.80;;
41881;SDS011;27562;47.524;12.404;2023-07-31T08:13:43;5.28;;;2.63;;
41881;SDS011;27562;47.524;12.404;2023-07-31T08:16:09;6.15;;;2.75;;
41881;SDS011;27562;47.524;12.404;2023-07-31T08:18:35;5.00;;;2.70;;
41881;SDS011;27562;47.524;12.404;2023-07-31T08:21:01;8.15;;;2.83;;
41881;SDS011;27562;47.524;12.404;2023-07-31T08:23:27;4.25;;;2.33;;
41881;SDS011;27562;47.524;12.404;2023-07-31T08:25:53;7.30;;;2.83;;
41881;SDS011;27562;47.524;12.404;2023-07-31T08:28:19;6.10;;;2.63;;
41881;SDS011;27562;47.524;12.404;2023-07-31T08:30:45;6.22;;;2.75;;
41881;SDS011;27562;47.524;12.404;2023-07-31T08:33:10;4.80;;;2.90;;
41881;SDS011;27562;47.524;12.404;2023-07-31T08:35:36;3.55;;;2.47;;
41881;SDS011;27562;47.524;12.404;2023-07-31T08:38:02;5.70;;;2.40;;
41881;SDS011;27562;47.524;12.404;2023-07-31T08:40:28;5.22;;;3.03;;
41881;SDS011;27562;47.524;12.404;2023-07-31T08:42:54;4.60;;;2.90;;
41881;SDS011;27562;47.524;12.404;2023-07-31T08:45:21;3.58;;;2.40;;
41881;SDS011;27562;47.524;12.404;2023-07-31T08:47:48;5.22;;;2.80;;
41881;SDS011;27562;47.524;12.404;2023-07-31T08:50:16;4.70;;;3.08;;
41881;SDS011;27562;47.524;12.404;2023-07-31T08:52:43;5.90;;;2.80;;
41881;SDS011;27562;47.524;12.404;2023-07-31T08:55:09;4.13;;;2.70;;
41881;SDS011;27562;47.524;12.404;2023-07-31T08:57:36;6.22;;;2.83;;
41881;SDS011;27562;47.524;12.404;2023-07-31T09:00:04;6.78;;;2.78;;
41881;SDS011;27562;47.524;12.404;2023-07-31T09:02:34;5.38;;;2.60;;
41881;SDS011;27562;47.524;12.404;2023-07-31T09:05:10;5.03;;;2.80;;
41881;SDS011;27562;47.524;12.404;2023-07-31T09:07:36;3.83;;;2.47;;
41881;SDS011;27562;47.524;12.404;2023-07-31T09:10:03;4.85;;;2.45;;
41881;SDS011;27562;47.524;12.404;2023-07-31T09:12:30;4.18;;;2.70;;
41881;SDS011;27562;47.524;12.404;2023-07-31T09:14:56;4.60;;;2.42;;
41881;SDS011;27562;47.524;12.404;2023-07-31T09:17:30;5.95;;;2.92;;
41881;SDS011;27562;47.524;12.404;2023-07-31T09:22:43;4.45;;;2.50;;
41881;SDS011;27562;47.524;12.404;2023-07-31T09:25:19;3.70;;;2.25;;
41881;SDS011;27562;47.524;12.404;2023-07-31T09:30:12;4.30;;;2.75;;
41881;SDS011;27562;47.524;12.404;2023-07-31T09:32:38;4.00;;;2.42;;
41881;SDS011;27562;47.524;12.404;2023-07-31T09:35:14;4.22;;;2.55;;
41881;SDS011;27562;47.524;12.404;2023-07-31T09:37:51;3.92;;;2.25;;
41881;SDS011;27562;47.524;12.404;2023-07-31T09:40:33;3.07;;;2.13;;
41881;SDS011;27562;47.524;12.404;2023-07-31T09:43:04;5.60;;;1.90;;
41881;SDS011;27562;47.524;12.404;2023-07-31T09:45:36;3.13;;;2.03;;
41881;SDS011;27562;47.524;12.404;2023-07-31T09:48:03;3.95;;;2.38;;
41881;SDS011;27562;47.524;12.404;2023-07-31T09:50:37;3.05;;;2.10;;
41881;SDS011;27562;47.524;12.404;2023-07-31T09:53:04;3.42;;;1.95;;
41881;SDS011;27562;47.524;12.404;2023-07-31T09:55:31;2.67;;;1.90;;
41881;SDS011;27562;47.524;12.404;2023-07-31T09:57:57;3.50;;;2.10;;
41881;SDS011;27562;47.524;12.404;2023-07-31T10:00:23;3.13;;;2.08;;
41881;SDS011;27562;47.524;12.404;2023-07-31T10:02:53;3.38;;;1.90;;
41881;SDS011;27562;47.524;12.404;2023-07-31T10:05:23;2.55;;;1.88;;
41881;SDS011;27562;47.524;12.404;2023-07-31T10:07:53;4.63;;;2.20;;
41881;SDS011;27562;47.524;12.404;2023-07-31T10:10:21;3.53;;;2.10;;
41881;SDS011;27562;47.524;12.404;2023-07-31T10:12:51;4.25;;;2.25;;
41881;SDS011;27562;47.524;12.404;2023-07-31T10:15:18;3.58;;;2.15;;
41881;SDS011;27562;47.524;12.404;2023-07-31T10:17:46;5.30;;;2.08;;
41881;SDS011;27562;47.524;12.404;2023-07-31T10:20:12;4.95;;;2.28;;
41881;SDS011;27562;47.524;12.404;2023-07-31T10:22:41;2.65;;;2.03;;
41881;SDS011;27562;47.524;12.404;2023-07-31T10:25:08;3.22;;;2.03;;
41881;SDS011;27562;47.524;12.404;2023-07-31T10:27:35;3.58;;;2.00;;
41881;SDS011;27562;47.524;12.404;2023-07-31T10:30:03;3.20;;;2.25;;
41881;SDS011;27562;47.524;12.404;2023-07-31T10:32:30;3.03;;;1.77;;
41881;SDS011;27562;47.524;12.404;2023-07-31T10:34:57;4.00;;;2.10;;
41881;SDS011;27562;47.524;12.404;2023-07-31T10:37:24;4.95;;;2.25;;
41881;SDS011;27562;47.524;12.404;2023-07-31T10:39:59;4.43;;;2.17;;
41881;SDS011;27562;47.524;12.404;2023-07-31T10:42:35;4.68;;;2.30;;
41881;SDS011;27562;47.524;12.404;2023-07-31T10:45:05;3.63;;;1.95;;
41881;SDS011;27562;47.524;12.404;2023-07-31T10:47:38;3.67;;;2.10;;
41881;SDS011;27562;47.524;12.404;2023-07-31T10:50:11;3.90;;;2.00;;
41881;SDS011;27562;47.524;12.404;2023-07-31T10:52:37;4.65;;;2.20;;
41881;SDS011;27562;47.524;12.404;2023-07-31T10:55:14;3.70;;;2.22;;
41881;SDS011;27562;47.524;12.404;2023-07-31T10:57:44;3.20;;;2.05;;
41881;SDS011;27562;47.524;12.404;2023-07-31T11:05:45;3.42;;;2.00;;
41881;SDS011;27562;47.524;12.404;2023-07-31T11:08:20;3.53;;;2.23;;
41881;SDS011;27562;47.524;12.404;2023-07-31T11:10:47;2.83;;;1.85;;
41881;SDS011;27562;47.524;12.404;2023-07-31T11:13:14;4.38;;;2.20;;
41881;SDS011;27562;47.524;12.404;2023-07-31T11:15:40;3.83;;;1.70;;
41881;SDS011;27562;47.524;12.404;2023-07-31T11:18:06;5.18;;;2.10;;
41881;SDS011;27562;47.524;12.404;2023-07-31T11:20:33;3.58;;;2.30;;
41881;SDS011;27562;47.524;12.404;2023-07-31T11:23:03;4.43;;;2.08;;
41881;SDS011;27562;47.524;12.404;2023-07-31T11:25:31;3.90;;;1.92;;
41881;SDS011;27562;47.524;12.404;2023-07-31T11:28:02;3.47;;;2.10;;
41881;SDS011;27562;47.524;12.404;2023-07-31T11:30:32;5.00;;;2.08;;
41881;SDS011;27562;47.524;12.404;2023-07-31T11:32:58;3.47;;;2.20;;
41881;SDS011;27562;47.524;12.404;2023-07-31T11:35:24;3.35;;;2.00;;
41881;SDS011;27562;47.524;12.404;2023-07-31T11:37:50;3.33;;;1.98;;
41881;SDS011;27562;47.524;12.404;2023-07-31T11:40:16;2.92;;;1.73;;
41881;SDS011;27562;47.524;12.404;2023-07-31T11:42:43;4.18;;;1.92;;
41881;SDS011;27562;47.524;12.404;2023-07-31T11:45:09;5.55;;;2.30;;
41881;SDS011;27562;47.524;12.404;2023-07-31T11:47:35;3.13;;;1.73;;
41881;SDS011;27562;47.524;12.404;2023-07-31T11:50:03;6.78;;;2.17;;
41881;SDS011;27562;47.524;12.404;2023-07-31T11:52:32;3.72;;;2.03;;
41881;SDS011;27562;47.524;12.404;2023-07-31T11:57:26;4.32;;;2.30;;
41881;SDS011;27562;47.524;12.404;2023-07-31T11:59:53;3.25;;;1.85;;
41881;SDS011;27562;47.524;12.404;2023-07-31T12:02:19;3.13;;;1.80;;
41881;SDS011;27562;47.524;12.404;2023-07-31T12:04:46;4.93;;;2.20;;
41881;SDS011;27562;47.524;12.404;2023-07-31T12:07:12;3.95;;;1.98;;
41881;SDS011;27562;47.524;12.404;2023-07-31T12:09:38;3.45;;;2.00;;
41881;SDS011;27562;47.524;12.404;2023-07-31T12:12:07;4.50;;;2.10;;
41881;SDS011;27562;47.524;12.404;2023-07-31T12:14:34;3.25;;;1.90;;
41881;SDS011;27562;47.524;12.404;2023-07-31T12:17:01;3.13;;;2.03;;
41881;SDS011;27562;47.524;12.404;2023-07-31T12:19:29;3.10;;;2.08;;
41881;SDS011;27562;47.524;12.404;2023-07-31T12:21:55;2.85;;;1.90;;
41881;SDS011;27562;47.524;12.404;2023-07-31T12:24:23;3.50;;;1.80;;
41881;SDS011;27562;47.524;12.404;2023-07-31T12:26:48;3.22;;;1.90;;
41881;SDS011;27562;47.524;12.404;2023-07-31T12:29:14;3.17;;;1.88;;
41881;SDS011;27562;47.524;12.404;2023-07-31T12:31:41;3.13;;;1.70;;
41881;SDS011;27562;47.524;12.404;2023-07-31T12:34:16;2.25;;;1.50;;
41881;SDS011;27562;47.524;12.404;2023-07-31T12:36:43;3.55;;;2.10;;
41881;SDS011;27562;47.524;12.404;2023-07-31T12:39:09;3.40;;;2.03;;
41881;SDS011;27562;47.524;12.404;2023-07-31T12:41:35;3.95;;;1.85;;
41881;SDS011;27562;47.524;12.404;2023-07-31T12:44:01;3.22;;;1.58;;
41881;SDS011;27562;47.524;12.404;2023-07-31T12:46:28;3.15;;;1.83;;
41881;SDS011;27562;47.524;12.404;2023-07-31T12:48:53;4.22;;;2.15;;
41881;SDS011;27562;47.524;12.404;2023-07-31T12:51:19;3.70;;;1.92;;
41881;SDS011;27562;47.524;12.404;2023-07-31T12:53:46;2.95;;;1.77;;
41881;SDS011;27562;47.524;12.404;2023-07-31T12:56:11;5.50;;;2.20;;
41881;SDS011;27562;47.524;12.404;2023-07-31T12:58:37;3.17;;;2.10;;
41881;SDS011;27562;47.524;12.404;2023-07-31T13:01:03;4.22;;;2.05;;
41881;SDS011;27562;47.524;12.404;2023-07-31T13:03:28;3.13;;;1.70;;
41881;SDS011;27562;47.524;12.404;2023-07-31T13:05:54;2.47;;;1.48;;
41881;SDS011;27562;47.524;12.404;2023-07-31T13:08:20;2.75;;;1.70;;
41881;SDS011;27562;47.524;12.404;2023-07-31T13:10:46;6.35;;;1.90;;
41881;SDS011;27562;47.524;12.404;2023-07-31T13:13:11;2.25;;;1.58;;
41881;SDS011;27562;47.524;12.404;2023-07-31T13:15:37;4.10;;;2.20;;
41881;SDS011;27562;47.524;12.404;2023-07-31T13:18:03;3.90;;;1.75;;
41881;SDS011;27562;47.524;12.404;2023-07-31T13:20:29;4.75;;;2.13;;
41881;SDS011;27562;47.524;12.404;2023-07-31T13:22:54;3.25;;;1.88;;
41881;SDS011;27562;47.524;12.404;2023-07-31T13:25:20;2.90;;;1.80;;
41881;SDS011;27562;47.524;12.404;2023-07-31T13:27:45;3.65;;;1.70;;
41881;SDS011;27562;47.524;12.404;2023-07-31T13:30:11;3.28;;;2.08;;
41881;SDS011;27562;47.524;12.404;2023-07-31T13:32:37;3.92;;;2.00;;
41881;SDS011;27562;47.524;12.404;2023-07-31T13:35:04;3.55;;;2.30;;
41881;SDS011;27562;47.524;12.404;2023-07-31T13:37:31;3.25;;;1.92;;
41881;SDS011;27562;47.524;12.404;2023-07-31T13:39:56;2.90;;;1.75;;
41881;SDS011;27562;47.524;12.404;2023-07-31T13:42:22;6.65;;;2.33;;
41881;SDS011;27562;47.524;12.404;2023-07-31T13:44:47;4.10;;;2.38;;
41881;SDS011;27562;47.524;12.404;2023-07-31T13:47:13;5.38;;;2.10;;
41881;SDS011;27562;47.524;12.404;2023-07-31T13:49:39;3.53;;;1.75;;
41881;SDS011;27562;47.524;12.404;2023-07-31T13:52:06;3.03;;;1.90;;
41881;SDS011;27562;47.524;12.404;2023-07-31T13:54:32;4.40;;;1.92;;
41881;SDS011;27562;47.524;12.404;2023-07-31T13:56:58;3.53;;;2.13;;
41881;SDS011;27562;47.524;12.404;2023-07-31T13:59:23;3.60;;;1.80;;
41881;SDS011;27562;47.524;12.404;2023-07-31T14:01:49;3.45;;;2.10;;
41881;SDS011;27562;47.524;12.404;2023-07-31T14:04:15;4.43;;;1.88;;
41881;SDS011;27562;47.524;12.404;2023-07-31T14:06:42;3.33;;;2.03;;
41881;SDS011;27562;47.524;12.404;2023-07-31T14:09:08;3.72;;;2.03;;
41881;SDS011;27562;47.524;12.404;2023-07-31T14:11:34;2.88;;;1.83;;
41881;SDS011;27562;47.524;12.404;2023-07-31T14:14:00;3.47;;;2.00;;
41881;SDS011;27562;47.524;12.404;2023-07-31T14:16:29;3.20;;;1.98;;
41881;SDS011;27562;47.524;12.404;2023-07-31T14:18:55;4.40;;;1.88;;
41881;SDS011;27562;47.524;12.404;2023-07-31T14:21:20;3.70;;;1.92;;
41881;SDS011;27562;47.524;12.404;2023-07-31T14:23:46;5.13;;;2.10;;
41881;SDS011;27562;47.524;12.404;2023-07-31T14:26:12;4.40;;;2.67;;
41881;SDS011;27562;47.524;12.404;2023-07-31T14:28:38;2.78;;;1.80;;
41881;SDS011;27562;47.524;12.404;2023-07-31T14:31:03;3.13;;;1.80;;
41881;SDS011;27562;47.524;12.404;2023-07-31T14:33:29;3.05;;;1.90;;
41881;SDS011;27562;47.524;12.404;2023-07-31T14:35:55;4.78;;;2.28;;
41881;SDS011;27562;47.524;12.404;2023-07-31T14:38:20;3.92;;;1.90;;
41881;SDS011;27562;47.524;12.404;2023-07-31T14:40:46;3.40;;;2.17;;
41881;SDS011;27562;47.524;12.404;2023-07-31T14:43:12;2.97;;;2.00;;
41881;SDS011;27562;47.524;12.404;2023-07-31T14:45:38;3.35;;;2.00;;
41881;SDS011;27562;47.524;12.404;2023-07-31T14:48:03;4.03;;;2.13;;